Pagrindinis puslapis
METAR-TAF:

METAR-TAF

Oro uostai :

Ojapokė, Amapa, Brazilija

platuma: 03-50N, ilguma: 051-50W, Aukštis: 39 m

Dabartinis oras

Ataskaita buvo paskelbta 2 valandos ir 23 minutes, ne 20:00 UTC
Vėjas 5 kt iš Rytų
Temperatūra 32°C
Drėgmė 52%
Slėgis 1008 hPa
Matomumas 10 km arba daugiau
Mažai debesys ne aukštis 4000 ft

METAR: SBOI 182000Z 08005KT 9999 FEW040 32/21 Q1008

Laikas: 19:23 (22:23 UTC)

Prognozė

Ataskaita buvo paskelbta 7 valandos ir 23 minutes, ne 15:00 UTC
Prognozė galioja nuo 18 metu 18 UTC su 19 metu 06 UTC
Vėjas 5 kt iš Rytų/Pietryčių
Matomumas 10 km arba daugiau
Išsisklaidę debesys ne aukštis 4000 ft

TAF: SBOI 181500Z 1818/1906 11005KT 9999 SCT040 TX34/1818Z TN33/1820Z RMK PHD

Orai ataskaitas ir orų prognozės (METAR, TAF).

turimą stotys yra geltonos ir raudonos taškus žemėlapyje.

Perkelti pele per norėdami pamatyti stoties vardą.

Tada spustelėkite, norėdami matyti oro stebėjimo ir prognozės.

Norėdami pakeisti žemėlapį: spustelėkite ant žalios mygtukų su juodo kryžiaus žemyn,; žalią mygtuką su brūkšneliu, jei norite nutolinti; arba žalių rodyklių gretimoms žemėlapius.


METAR-TAF: